createdAt,value
2019-01-17T00:00:35.901Z,7.67
2019-01-17T00:03:25.258Z,6.87
2019-01-17T00:06:13.924Z,7.05
2019-01-17T00:09:08.805Z,8.03
2019-01-17T00:11:51.604Z,7.47
2019-01-17T00:14:36.900Z,6.33
2019-01-17T00:17:20.051Z,6.93
2019-01-17T00:20:16.047Z,6.58
2019-01-17T00:23:11.433Z,6.33
2019-01-17T00:26:20.037Z,5.70
2019-01-17T00:29:15.325Z,4.80
2019-01-17T00:32:00.088Z,4.83
2019-01-17T00:34:55.335Z,5.13
2019-01-17T00:37:33.599Z,4.97
2019-01-17T00:40:12.593Z,5.30
2019-01-17T00:43:02.823Z,5.70
2019-01-17T00:45:52.068Z,6.10
2019-01-17T00:48:48.815Z,6.37
2019-01-17T00:51:50.273Z,5.57
2019-01-17T00:54:51.626Z,5.63
2019-01-17T00:57:40.115Z,4.87
2019-01-17T01:00:34.944Z,5.10
2019-01-17T01:03:26.089Z,5.17
2019-01-17T01:06:15.117Z,5.13
2019-01-17T01:09:04.919Z,5.70
2019-01-17T01:11:58.788Z,5.33
2019-01-17T01:14:47.979Z,5.17
2019-01-17T01:17:48.311Z,5.80
2019-01-17T01:20:53.215Z,5.83
2019-01-17T01:23:46.913Z,5.20
2019-01-17T01:26:42.149Z,5.63
2019-01-17T01:29:41.822Z,6.10
2019-01-17T01:32:29.675Z,6.10
2019-01-17T01:35:24.761Z,6.50
2019-01-17T01:38:05.761Z,6.23
2019-01-17T01:41:01.067Z,5.47
2019-01-17T01:43:44.298Z,6.37
2019-01-17T01:46:38.608Z,6.03
2019-01-17T01:49:46.829Z,5.23
2019-01-17T01:52:32.674Z,5.87
2019-01-17T01:55:03.274Z,5.50
2019-01-17T01:57:33.631Z,5.77
2019-01-17T02:00:04.530Z,5.23
2019-01-17T02:02:35.913Z,5.60
2019-01-17T02:05:07.249Z,5.47
2019-01-17T02:07:37.488Z,5.00
2019-01-17T02:10:08.740Z,5.40
2019-01-17T02:12:39.003Z,6.00
2019-01-17T02:15:09.248Z,6.60
2019-01-17T02:17:39.581Z,5.77
2019-01-17T02:20:10.274Z,6.20
2019-01-17T02:22:42.619Z,6.03
2019-01-17T02:25:14.875Z,6.23
2019-01-17T02:27:45.111Z,6.10
2019-01-17T02:30:16.175Z,5.37
2019-01-17T02:32:46.645Z,5.57
2019-01-17T02:35:16.959Z,5.53
2019-01-17T02:37:47.719Z,5.77
2019-01-17T02:40:18.017Z,5.80
2019-01-17T02:42:48.328Z,6.43
2019-01-17T02:45:18.743Z,5.93
2019-01-17T02:47:48.924Z,6.20
2019-01-17T02:50:19.211Z,5.43
2019-01-17T02:52:49.404Z,5.77
2019-01-17T02:55:19.659Z,5.90
2019-01-17T02:57:49.923Z,5.40
2019-01-17T03:00:20.305Z,5.77
2019-01-17T03:02:50.580Z,5.17
2019-01-17T03:05:20.853Z,5.53
2019-01-17T03:07:51.024Z,5.13
2019-01-17T03:10:21.402Z,5.33
2019-01-17T03:12:52.026Z,5.50
2019-01-17T03:15:22.254Z,6.03
2019-01-17T03:17:52.457Z,5.43
2019-01-17T03:20:22.701Z,5.57
2019-01-17T03:22:52.989Z,6.47
2019-01-17T03:25:23.242Z,6.50
2019-01-17T03:27:53.513Z,6.03
2019-01-17T03:30:23.781Z,6.20
2019-01-17T03:32:54.126Z,6.03
2019-01-17T03:35:24.660Z,5.00
2019-01-17T03:37:54.916Z,6.17
2019-01-17T03:40:25.799Z,5.80
2019-01-17T03:42:56.072Z,5.73
2019-01-17T03:45:26.350Z,5.33
2019-01-17T03:47:56.618Z,6.17
2019-01-17T03:50:27.223Z,5.10
2019-01-17T03:52:57.852Z,5.80
2019-01-17T03:55:28.173Z,5.60
2019-01-17T03:57:58.444Z,5.50
2019-01-17T04:00:28.707Z,5.83
2019-01-17T04:02:59.413Z,5.80
2019-01-17T04:05:30.049Z,5.20
2019-01-17T04:08:00.250Z,5.60
2019-01-17T04:10:31.147Z,5.87
2019-01-17T04:13:01.785Z,5.07
2019-01-17T04:15:32.052Z,5.80
2019-01-17T04:18:02.658Z,5.50
2019-01-17T04:20:32.878Z,5.40
2019-01-17T04:23:03.196Z,5.80
2019-01-17T04:25:33.528Z,5.70
2019-01-17T04:28:03.772Z,5.97
2019-01-17T04:30:34.326Z,6.13
2019-01-17T04:33:04.585Z,6.13
2019-01-17T04:35:34.913Z,5.83
2019-01-17T04:38:06.198Z,5.83
2019-01-17T04:40:36.471Z,5.17
2019-01-17T04:43:06.752Z,5.87
2019-01-17T04:45:36.959Z,6.10
2019-01-17T04:48:07.282Z,6.30
2019-01-17T04:50:37.567Z,5.67
2019-01-17T04:53:07.848Z,5.83
2019-01-17T04:55:38.134Z,5.83
2019-01-17T04:58:08.727Z,6.70
2019-01-17T05:00:38.993Z,6.03
2019-01-17T05:03:09.243Z,6.33
2019-01-17T05:05:39.528Z,5.67
2019-01-17T05:08:10.438Z,5.67
2019-01-17T05:10:42.767Z,5.43
2019-01-17T05:13:13.032Z,5.73
2019-01-17T05:15:43.316Z,5.83
2019-01-17T05:18:13.890Z,5.33
2019-01-17T05:20:44.172Z,6.07
2019-01-17T05:23:14.459Z,6.00
2019-01-17T05:25:44.726Z,6.27
2019-01-17T05:28:14.996Z,5.60
2019-01-17T05:30:45.259Z,5.77
2019-01-17T05:33:15.995Z,5.77
2019-01-17T05:35:46.339Z,5.07
2019-01-17T05:38:16.619Z,6.10
2019-01-17T05:40:47.208Z,6.03
2019-01-17T05:43:17.448Z,5.80
2019-01-17T05:45:47.735Z,5.43
2019-01-17T05:48:18.050Z,5.20
2019-01-17T05:50:48.326Z,5.93
2019-01-17T05:53:18.947Z,5.60
2019-01-17T05:55:49.228Z,6.97
2019-01-17T05:58:19.810Z,6.33
2019-01-17T06:00:50.460Z,5.50
2019-01-17T06:03:20.771Z,5.60
2019-01-17T06:05:51.429Z,6.10
2019-01-17T06:08:21.626Z,5.07
2019-01-17T06:10:52.011Z,5.30
2019-01-17T06:13:22.620Z,5.23
2019-01-17T06:15:53.154Z,5.37
2019-01-17T06:18:23.374Z,5.77
2019-01-17T06:20:53.597Z,5.87
2019-01-17T06:23:24.195Z,5.17
2019-01-17T06:25:54.453Z,5.17
2019-01-17T06:28:24.720Z,4.97
2019-01-17T06:30:54.995Z,5.23
2019-01-17T06:33:25.263Z,4.90
2019-01-17T06:35:55.540Z,5.07
2019-01-17T06:38:26.018Z,4.57
2019-01-17T06:40:56.421Z,4.60
2019-01-17T06:43:26.687Z,4.80
2019-01-17T06:45:56.999Z,5.43
2019-01-17T06:48:27.257Z,5.47
2019-01-17T06:50:57.531Z,5.30
2019-01-17T06:53:27.869Z,5.53
2019-01-17T06:55:58.160Z,5.17
2019-01-17T06:58:28.489Z,5.87
2019-01-17T07:00:58.702Z,5.23
2019-01-17T07:03:29.020Z,5.27
2019-01-17T07:05:59.622Z,5.00
2019-01-17T07:08:31.012Z,5.00
2019-01-17T07:11:01.221Z,5.27
2019-01-17T07:13:31.942Z,4.93
2019-01-17T07:16:02.196Z,5.00
2019-01-17T07:18:32.535Z,5.13
2019-01-17T07:21:02.743Z,5.10
2019-01-17T07:23:33.423Z,5.17
2019-01-17T07:26:03.705Z,6.00
2019-01-17T07:28:34.279Z,5.00
2019-01-17T07:31:04.542Z,5.00
2019-01-17T07:33:34.844Z,5.60
2019-01-17T07:36:05.124Z,5.27
2019-01-17T07:38:35.363Z,5.20
2019-01-17T07:41:05.646Z,5.10
2019-01-17T07:43:35.992Z,5.30
2019-01-17T07:46:06.334Z,5.00
2019-01-17T07:48:36.819Z,4.97
2019-01-17T07:51:07.249Z,5.60
2019-01-17T07:53:37.538Z,4.87
2019-01-17T07:56:10.869Z,4.83
2019-01-17T07:58:43.181Z,4.75
2019-01-17T08:01:15.100Z,4.87
2019-01-17T08:03:45.508Z,4.93
2019-01-17T08:06:16.101Z,4.33
2019-01-17T08:08:46.327Z,5.17
2019-01-17T08:11:16.617Z,4.50
2019-01-17T08:13:46.890Z,4.00
2019-01-17T08:16:17.193Z,4.50
2019-01-17T08:18:47.797Z,4.70
2019-01-17T08:21:18.065Z,4.17
2019-01-17T08:23:48.433Z,3.93
2019-01-17T08:26:18.676Z,3.17
2019-01-17T08:28:48.937Z,3.27
2019-01-17T08:31:19.625Z,3.70
2019-01-17T08:33:49.919Z,3.30
2019-01-17T08:36:20.194Z,4.10
2019-01-17T08:38:50.467Z,3.27
2019-01-17T08:41:20.761Z,3.87
2019-01-17T08:43:51.266Z,3.33
2019-01-17T08:46:21.732Z,2.80
2019-01-17T08:48:52.349Z,2.80
2019-01-17T08:51:22.652Z,2.87
2019-01-17T08:53:52.936Z,2.53
2019-01-17T08:56:23.193Z,3.30
2019-01-17T08:58:53.452Z,3.20
2019-01-17T09:01:23.754Z,2.83
2019-01-17T09:03:54.157Z,2.87
2019-01-17T09:06:24.423Z,2.97
2019-01-17T09:08:56.158Z,2.60
2019-01-17T09:11:26.593Z,3.20
2019-01-17T09:13:56.893Z,3.10
2019-01-17T09:16:27.137Z,2.93
2019-01-17T09:18:57.611Z,2.70
2019-01-17T09:21:27.832Z,2.63
2019-01-17T09:23:58.056Z,2.77
2019-01-17T09:26:28.712Z,2.60
2019-01-17T09:28:58.920Z,2.63
2019-01-17T09:31:29.256Z,2.40
2019-01-17T09:33:59.548Z,3.00
2019-01-17T09:36:30.026Z,2.60
2019-01-17T09:39:00.206Z,2.97
2019-01-17T09:41:30.513Z,2.23
2019-01-17T09:44:00.772Z,1.90
2019-01-17T09:46:31.078Z,2.03
2019-01-17T09:49:01.313Z,1.63
2019-01-17T09:51:31.665Z,1.03
2019-01-17T09:54:02.023Z,1.33
2019-01-17T09:56:32.409Z,1.00
2019-01-17T09:59:02.908Z,0.90
2019-01-17T10:01:34.344Z,0.60
2019-01-17T10:04:04.651Z,0.70
2019-01-17T10:06:34.950Z,0.60
2019-01-17T10:09:07.690Z,0.87
2019-01-17T10:11:38.287Z,0.70
2019-01-17T10:14:08.485Z,0.70
2019-01-17T10:16:51.719Z,1.00
2019-01-17T10:19:58.739Z,0.60
2019-01-17T10:23:13.024Z,0.90
2019-01-17T10:26:42.472Z,0.80
2019-01-17T10:29:58.889Z,1.13
2019-01-17T10:32:50.129Z,0.70
2019-01-17T10:35:33.051Z,0.90
2019-01-17T10:38:39.270Z,0.90
2019-01-17T10:41:41.729Z,0.80
2019-01-17T10:45:07.285Z,0.70
2019-01-17T10:48:13.012Z,0.70
2019-01-17T10:51:09.413Z,0.80
2019-01-17T10:54:02.708Z,0.90
2019-01-17T10:57:16.333Z,1.00
2019-01-17T11:00:45.767Z,0.77
2019-01-17T11:03:59.776Z,0.77
2019-01-17T11:06:56.641Z,0.80
2019-01-17T11:09:51.353Z,1.13
2019-01-17T11:12:58.884Z,0.90
2019-01-17T11:15:54.650Z,0.50
2019-01-17T11:18:47.441Z,0.80
2019-01-17T11:22:03.260Z,0.43
2019-01-17T11:25:26.878Z,0.70
2019-01-17T11:28:29.018Z,0.50
2019-01-17T11:31:39.799Z,0.70
2019-01-17T11:34:53.451Z,0.90
2019-01-17T11:37:54.745Z,0.70
2019-01-17T11:41:17.410Z,0.80
2019-01-17T11:44:52.647Z,1.00
2019-01-17T11:48:03.287Z,0.83
2019-01-17T11:51:29.400Z,0.87
2019-01-17T11:54:19.252Z,1.50
2019-01-17T11:57:37.887Z,1.43
2019-01-17T12:00:29.459Z,0.90
2019-01-17T12:03:49.100Z,1.20
2019-01-17T12:06:19.404Z,1.10
2019-01-17T12:08:49.701Z,1.10
2019-01-17T12:11:19.964Z,1.10
2019-01-17T12:13:50.510Z,1.47
2019-01-17T12:16:20.844Z,1.20
2019-01-17T12:18:51.241Z,1.10
2019-01-17T12:21:21.519Z,1.53
2019-01-17T12:23:51.792Z,1.30
2019-01-17T12:26:22.153Z,1.23
2019-01-17T12:28:52.512Z,1.10
2019-01-17T12:31:22.741Z,1.10
2019-01-17T12:33:53.016Z,1.30
2019-01-17T12:36:23.298Z,1.20
2019-01-17T12:38:53.628Z,1.20
2019-01-17T12:41:24.288Z,1.47
2019-01-17T12:43:55.840Z,1.50
2019-01-17T12:46:28.055Z,1.30
2019-01-17T12:48:58.336Z,1.37
2019-01-17T12:51:28.570Z,1.30
2019-01-17T12:53:58.894Z,1.30
2019-01-17T12:56:30.165Z,1.20
2019-01-17T12:59:00.762Z,1.27
2019-01-17T13:01:31.010Z,1.17
2019-01-17T13:04:01.334Z,1.47
2019-01-17T13:06:31.618Z,1.50
2019-01-17T13:09:01.846Z,1.27
2019-01-17T13:11:32.157Z,0.77
2019-01-17T13:14:03.441Z,0.93
2019-01-17T13:16:34.955Z,1.17
2019-01-17T13:19:07.045Z,1.30
2019-01-17T13:21:38.093Z,1.20
2019-01-17T13:24:08.424Z,1.07
2019-01-17T13:26:38.681Z,1.20
2019-01-17T13:29:09.000Z,1.17
2019-01-17T13:31:39.212Z,0.97
2019-01-17T13:34:09.518Z,1.73
2019-01-17T13:36:40.554Z,1.80
2019-01-17T13:39:10.880Z,1.70
2019-01-17T13:41:41.643Z,1.63
2019-01-17T13:44:12.099Z,1.30
2019-01-17T13:46:42.566Z,1.40
2019-01-17T13:49:12.815Z,1.13
2019-01-17T13:51:43.123Z,1.40
2019-01-17T13:54:13.440Z,1.20
2019-01-17T13:56:44.271Z,1.30
2019-01-17T13:59:14.646Z,1.73
2019-01-17T14:01:44.913Z,1.40
2019-01-17T14:04:15.209Z,1.40
2019-01-17T14:06:46.483Z,1.83
2019-01-17T14:09:16.778Z,1.77
2019-01-17T14:11:47.362Z,1.70
2019-01-17T14:14:17.974Z,1.63
2019-01-17T14:16:48.219Z,1.73
2019-01-17T14:19:18.477Z,1.57
2019-01-17T14:21:48.740Z,1.20
2019-01-17T14:24:19.341Z,1.60
2019-01-17T14:26:49.859Z,1.40
2019-01-17T14:29:20.061Z,1.40
2019-01-17T14:31:50.336Z,1.43
2019-01-17T14:34:20.614Z,0.93
2019-01-17T14:36:50.897Z,0.90
2019-01-17T14:39:21.157Z,0.40
2019-01-17T14:41:51.424Z,0.53
2019-01-17T14:44:22.078Z,0.40
2019-01-17T14:46:52.712Z,0.73
2019-01-17T14:49:23.346Z,0.97
2019-01-17T14:51:53.764Z,0.73
2019-01-17T14:54:24.580Z,0.83
2019-01-17T14:56:54.805Z,1.30
2019-01-17T14:59:25.355Z,1.20
2019-01-17T15:01:56.093Z,0.60
2019-01-17T15:04:26.386Z,0.40
2019-01-17T15:06:56.629Z,0.40
2019-01-17T15:09:27.267Z,0.50
2019-01-17T15:11:57.488Z,0.50
2019-01-17T15:14:27.857Z,0.60
2019-01-17T15:16:58.228Z,0.83
2019-01-17T15:19:28.779Z,0.70
2019-01-17T15:21:58.978Z,0.63
2019-01-17T15:24:29.242Z,0.80
2019-01-17T15:26:59.528Z,0.67
2019-01-17T15:29:29.819Z,0.70
2019-01-17T15:32:00.089Z,0.70
2019-01-17T15:34:30.855Z,0.88
2019-01-17T15:37:01.224Z,0.87
2019-01-17T15:39:31.883Z,0.87
2019-01-17T15:42:02.236Z,0.97
2019-01-17T15:44:32.575Z,1.03
2019-01-17T15:47:02.843Z,1.00
2019-01-17T15:49:33.145Z,1.10
2019-01-17T15:52:03.683Z,0.97
2019-01-17T15:54:33.874Z,0.90
2019-01-17T15:57:04.190Z,0.90
2019-01-17T15:59:34.500Z,1.07
2019-01-17T16:02:05.313Z,1.00
2019-01-17T16:04:35.581Z,1.07
2019-01-17T16:07:05.852Z,0.97
2019-01-17T16:09:36.121Z,0.90
2019-01-17T16:12:06.356Z,1.70
2019-01-17T16:14:36.581Z,2.03
2019-01-17T16:17:06.843Z,1.13
2019-01-17T16:19:37.124Z,1.90
2019-01-17T16:22:07.388Z,1.23
2019-01-17T16:24:37.672Z,1.23
2019-01-17T16:27:07.943Z,3.20
2019-01-17T16:29:38.124Z,0.93
2019-01-17T16:32:08.421Z,2.40
2019-01-17T16:34:38.707Z,1.27
2019-01-17T16:37:10.036Z,1.10
2019-01-17T16:39:40.435Z,1.13
2019-01-17T16:42:11.209Z,0.70
2019-01-17T16:44:41.491Z,0.73
2019-01-17T16:47:11.832Z,1.00
2019-01-17T16:49:42.052Z,1.07
2019-01-17T16:52:12.336Z,1.40
2019-01-17T16:54:42.500Z,2.03
2019-01-17T16:57:12.760Z,1.00
2019-01-17T16:59:43.054Z,0.93
2019-01-17T17:02:13.623Z,0.97
2019-01-17T17:04:43.915Z,1.90
2019-01-17T17:07:15.267Z,1.00
2019-01-17T17:09:45.554Z,1.33
2019-01-17T17:12:15.874Z,1.50
2019-01-17T17:14:46.186Z,1.10
2019-01-17T17:17:16.498Z,0.70
2019-01-17T17:19:46.691Z,1.03
2019-01-17T17:22:17.005Z,1.60
2019-01-17T17:24:47.224Z,1.97
2019-01-17T17:27:17.560Z,1.62
2019-01-17T17:29:47.850Z,2.07
2019-01-17T17:32:19.911Z,2.03
2019-01-17T17:34:50.101Z,1.60
2019-01-17T17:37:20.387Z,2.20
2019-01-17T17:39:51.752Z,1.33
2019-01-17T17:42:22.062Z,1.90
2019-01-17T17:44:52.361Z,2.10
2019-01-17T17:47:22.606Z,1.37
2019-01-17T17:49:53.220Z,1.77
2019-01-17T17:52:23.467Z,1.30
2019-01-17T17:54:55.670Z,2.00
2019-01-17T17:57:25.956Z,1.37
2019-01-17T17:59:56.191Z,1.23
2019-01-17T18:02:34.690Z,0.90
2019-01-17T18:05:06.704Z,1.13
2019-01-17T18:07:36.925Z,1.30
2019-01-17T18:10:09.451Z,0.80
2019-01-17T18:12:39.884Z,1.43
2019-01-17T18:15:11.703Z,1.70
2019-01-17T18:17:42.311Z,1.67
2019-01-17T18:20:13.546Z,1.47
2019-01-17T18:22:44.952Z,1.20
2019-01-17T18:25:16.451Z,1.27
2019-01-17T18:27:47.131Z,1.50
2019-01-17T18:30:19.779Z,1.70
2019-01-17T18:32:50.382Z,2.63
2019-01-17T18:35:20.962Z,1.35
2019-01-17T18:37:51.220Z,0.93
2019-01-17T18:40:21.908Z,1.13
2019-01-17T18:42:52.403Z,1.47
2019-01-17T18:45:23.601Z,1.10
2019-01-17T18:47:54.160Z,1.63
2019-01-17T18:50:27.158Z,1.20
2019-01-17T18:52:57.577Z,1.10
2019-01-17T18:55:27.804Z,0.80
2019-01-17T18:57:58.164Z,0.83
2019-01-17T19:00:30.659Z,1.07
2019-01-17T19:03:01.218Z,1.10
2019-01-17T19:05:32.172Z,0.80
2019-01-17T19:08:02.403Z,1.53
2019-01-17T19:10:32.877Z,1.10
2019-01-17T19:13:03.139Z,0.97
2019-01-17T19:15:34.477Z,1.00
2019-01-17T19:18:07.369Z,1.07
2019-01-17T19:20:38.133Z,0.95
2019-01-17T19:23:08.345Z,1.23
2019-01-17T19:25:38.746Z,1.20
2019-01-17T19:28:09.440Z,1.20
2019-01-17T19:30:40.360Z,1.33
2019-01-17T19:33:10.676Z,1.37
2019-01-17T19:35:40.894Z,1.77
2019-01-17T19:38:12.847Z,1.47
2019-01-17T19:40:43.415Z,2.00
2019-01-17T19:43:13.891Z,2.00
2019-01-17T19:45:57.183Z,2.17
2019-01-17T19:48:27.458Z,2.60
2019-01-17T19:50:57.699Z,2.67
2019-01-17T19:53:29.308Z,2.80
2019-01-17T19:56:00.722Z,2.93
2019-01-17T19:58:31.083Z,3.83
2019-01-17T20:01:01.352Z,3.30
2019-01-17T20:03:32.122Z,2.83
2019-01-17T20:06:02.434Z,2.80
2019-01-17T20:08:32.732Z,2.97
2019-01-17T20:11:02.944Z,2.20
2019-01-17T20:13:33.303Z,2.80
2019-01-17T20:16:03.777Z,2.87
2019-01-17T20:18:34.582Z,2.87
2019-01-17T20:21:04.991Z,2.43
2019-01-17T20:23:35.322Z,2.33
2019-01-17T20:26:06.196Z,2.55
2019-01-17T20:28:36.474Z,2.30
2019-01-17T20:31:07.698Z,3.20
2019-01-17T20:33:38.043Z,3.37
2019-01-17T20:36:08.996Z,3.67
2019-01-17T20:38:39.311Z,3.00
2019-01-17T20:41:09.577Z,3.70
2019-01-17T20:43:40.196Z,4.00
2019-01-17T20:46:10.443Z,3.60
2019-01-17T20:48:40.714Z,3.70
2019-01-17T20:51:10.981Z,3.67
2019-01-17T20:53:41.256Z,4.10
2019-01-17T20:56:11.550Z,10.40
2019-01-17T20:58:42.844Z,11.77
2019-01-17T21:01:36.337Z,10.10
2019-01-17T21:04:08.221Z,6.73
2019-01-17T21:06:38.452Z,2.93
2019-01-17T21:09:11.399Z,1.63
2019-01-17T21:11:41.648Z,1.60
2019-01-17T21:14:13.118Z,1.40
2019-01-17T21:16:43.459Z,1.37
2019-01-17T21:19:13.674Z,1.73
2019-01-17T21:21:45.051Z,2.03
2019-01-17T21:24:15.537Z,1.70
2019-01-17T21:26:46.293Z,1.73
2019-01-17T21:29:19.697Z,1.30
2019-01-17T21:31:49.976Z,1.33
2019-01-17T21:34:20.295Z,1.70
2019-01-17T21:36:51.962Z,1.10
2019-01-17T21:39:22.257Z,1.50
2019-01-17T21:41:52.455Z,1.17
2019-01-17T21:44:22.779Z,2.40
2019-01-17T21:46:53.065Z,1.93
2019-01-17T21:49:23.350Z,2.73
2019-01-17T21:51:55.084Z,4.80
2019-01-17T21:54:25.687Z,4.33
2019-01-17T21:56:55.998Z,1.90
2019-01-17T21:59:26.289Z,3.00
2019-01-17T22:01:56.542Z,1.37
2019-01-17T22:04:26.824Z,1.40
2019-01-17T22:06:57.072Z,1.30
2019-01-17T22:09:27.683Z,1.80
2019-01-17T22:11:57.949Z,2.00
2019-01-17T22:14:28.151Z,1.80
2019-01-17T22:16:58.544Z,1.60
2019-01-17T22:19:29.996Z,1.43
2019-01-17T22:22:00.714Z,1.30
2019-01-17T22:24:30.985Z,1.00
2019-01-17T22:27:01.267Z,0.97
2019-01-17T22:29:32.680Z,1.17
2019-01-17T22:32:02.947Z,1.67
2019-01-17T22:34:33.601Z,1.80
2019-01-17T22:37:03.799Z,1.80
2019-01-17T22:39:34.388Z,3.23
2019-01-17T22:42:05.059Z,1.40
2019-01-17T22:44:35.608Z,0.80
2019-01-17T22:47:05.918Z,0.97
2019-01-17T22:49:36.196Z,0.93
2019-01-17T22:52:06.448Z,1.30
2019-01-17T22:54:36.653Z,1.00
2019-01-17T22:57:06.887Z,1.50
2019-01-17T22:59:37.538Z,0.90
2019-01-17T23:02:07.987Z,1.00
2019-01-17T23:04:38.261Z,1.00
2019-01-17T23:07:08.574Z,0.93
2019-01-17T23:09:38.818Z,0.90
2019-01-17T23:12:09.153Z,1.20
2019-01-17T23:14:39.356Z,1.10
2019-01-17T23:17:09.705Z,1.07
2019-01-17T23:19:40.020Z,1.03
2019-01-17T23:22:10.342Z,1.30
2019-01-17T23:24:40.600Z,1.20
2019-01-17T23:27:10.815Z,1.30
2019-01-17T23:29:41.140Z,1.20
2019-01-17T23:32:11.416Z,0.97
2019-01-17T23:34:41.673Z,1.07
2019-01-17T23:37:11.877Z,1.00
2019-01-17T23:39:42.103Z,1.10
2019-01-17T23:42:12.584Z,1.20
2019-01-17T23:44:42.842Z,1.03
2019-01-17T23:47:13.169Z,0.97
2019-01-17T23:49:44.955Z,0.90
2019-01-17T23:52:24.008Z,1.03
2019-01-17T23:54:55.198Z,1.20
2019-01-17T23:57:31.259Z,1.30
